Pagina principale
METAR-TAF:

METAR-TAF

Aeroporti :

NASA Shuttle Landing Facility

John F. Kennedy Space Center, Florida, Stati Uniti

latitudine: 28-37N, longitudine: 080-43W, altezza: 3 m

Osservazione

Il bollettino è stato emesso 1 ora e 11 minuti fa, alle 20:56 UTC
Vento 6 kt da nord/nord-est
Temperature 18°C
Umidità 49%
Pressione 1023 hPa
Visibilità: 16.1 km
Cielo sereno

METAR: KTTS 122056Z AUTO 02006KT 10SM CLR 18/07 A3021 RMK AO2 SLP234 T01800074 56015 $

Ora: 17:07 (22:07 UTC)


TAF: mancante

Osservazioni e previsioni meteorologiche di più di 4000 aeroporti (messaggi METAR e TAF).

Le stazioni disponibili sono rappresentate dai dischi gialli e rossi sulla carta.

Puntare il mouse per vedere il nome della stazione.

Clicca sopra per visualizzare le osservazioni e previsioni meteorologiche.

Per cambiare la mappa : fare clic sui pulsanti verdi con una croce nera per ingrandire, il pulsante verde con un trattino per diminuire, o sulla freccia verde per le mappe adiacenti.


METAR-TAF: